Terminal Aerodrome Forecast
Issued by NWS Wilmington, OH

Current Version | Previous Version | Graphics & Text | Print | Product List | Glossary On
Versions: 1 2 3 4 5 6 7 8 9 10 11 12 13 14 15 16 17 18 19 20 21 22 23 24 25 26 27 28 29 30 31 32 33 34
000
FTUS41 KILN 172300
TAFCVG
TAF
KCVG 172334Z 1800/1906 16008KT P6SM VCSH BKN025 OVC050
      TEMPO 1800/1803 5SM -SHRA BR OVC025
     FM180300 15003KT 5SM BR VCSH OVC022
     FM181100 VRB03KT 2SM BR OVC012
     FM181400 29004KT 5SM HZ VCSH OVC025
     FM181800 30006KT P6SM OVC035
     FM190400 VRB03KT 5SM BR BKN050=

USA.gov is the U.S. government's official web portal to all federal, state and local government web resources and services.